Main page
METAR-TAF:

METAR-TAF

Airports :

Placerville Airport

Placerville, California, United States

latitude: 38-43-27N, longitude: 120-45-12W, elevation: 2585 ft

Current weather observation

The report was made 27 minutes ago, at 19:15 UTC
Wind 8 mph from the Southwest
Temperature 75°F
Humidity 34%
Pressure 30.01 in. Hg
Visibility: 10 miles
Clear sky

METAR: KPVF 191915Z AUTO 23007KT 10SM CLR 24/07 A3001 RMK AO1

Time: 12:42 (19:42 UTC)


TAF: missing

Weather observations and forecasts of more than 4000 airports (METAR and TAF reports).

The available stations are represented by yellow and red dots on the map.

Hover mouse over dot to see the name of the station.

Then click to see weather observations and forecasts.

To change the map : click on the green buttons with a black cross to zoom in, on the green button with a dash to zoom out, or on the green arrows for adjacent maps.


METAR-TAF: